sensor_id;sensor_type;location;lat;lon;timestamp;P1;durP1;ratioP1;P2;durP2;ratioP2
24008;SDS011;12217;50.792;4.372;2023-07-29T00:01:31;2.75;;;1.50;;
24008;SDS011;12217;50.792;4.372;2023-07-29T00:03:57;3.58;;;1.75;;
24008;SDS011;12217;50.792;4.372;2023-07-29T00:06:23;3.42;;;1.50;;
24008;SDS011;12217;50.792;4.372;2023-07-29T00:08:49;3.13;;;1.50;;
24008;SDS011;12217;50.792;4.372;2023-07-29T00:11:14;1.50;;;1.40;;
24008;SDS011;12217;50.792;4.372;2023-07-29T00:13:40;4.15;;;1.65;;
24008;SDS011;12217;50.792;4.372;2023-07-29T00:16:06;5.70;;;1.65;;
24008;SDS011;12217;50.792;4.372;2023-07-29T00:18:31;5.22;;;1.70;;
24008;SDS011;12217;50.792;4.372;2023-07-29T00:20:57;4.35;;;1.60;;
24008;SDS011;12217;50.792;4.372;2023-07-29T00:23:23;3.70;;;1.33;;
24008;SDS011;12217;50.792;4.372;2023-07-29T00:25:48;2.72;;;1.45;;
24008;SDS011;12217;50.792;4.372;2023-07-29T00:28:14;1.73;;;1.40;;
24008;SDS011;12217;50.792;4.372;2023-07-29T00:30:40;2.78;;;1.58;;
24008;SDS011;12217;50.792;4.372;2023-07-29T00:33:05;4.20;;;1.50;;
24008;SDS011;12217;50.792;4.372;2023-07-29T00:35:32;2.05;;;1.63;;
24008;SDS011;12217;50.792;4.372;2023-07-29T00:37:58;2.75;;;1.33;;
24008;SDS011;12217;50.792;4.372;2023-07-29T00:40:23;3.97;;;1.23;;
24008;SDS011;12217;50.792;4.372;2023-07-29T00:42:49;2.42;;;1.55;;
24008;SDS011;12217;50.792;4.372;2023-07-29T00:45:15;2.80;;;1.80;;
24008;SDS011;12217;50.792;4.372;2023-07-29T00:47:42;3.30;;;1.75;;
24008;SDS011;12217;50.792;4.372;2023-07-29T00:50:09;3.17;;;1.60;;
24008;SDS011;12217;50.792;4.372;2023-07-29T00:52:36;2.22;;;1.80;;
24008;SDS011;12217;50.792;4.372;2023-07-29T00:55:01;1.85;;;1.63;;
24008;SDS011;12217;50.792;4.372;2023-07-29T00:57:29;2.58;;;1.50;;
24008;SDS011;12217;50.792;4.372;2023-07-29T00:59:55;3.40;;;1.85;;
24008;SDS011;12217;50.792;4.372;2023-07-29T01:02:21;2.47;;;1.65;;
24008;SDS011;12217;50.792;4.372;2023-07-29T01:04:54;2.85;;;1.63;;
24008;SDS011;12217;50.792;4.372;2023-07-29T01:07:23;1.80;;;1.50;;
24008;SDS011;12217;50.792;4.372;2023-07-29T01:10:01;3.80;;;1.80;;
24008;SDS011;12217;50.792;4.372;2023-07-29T01:15:16;4.25;;;1.60;;
24008;SDS011;12217;50.792;4.372;2023-07-29T01:17:54;3.20;;;1.67;;
24008;SDS011;12217;50.792;4.372;2023-07-29T01:20:22;4.10;;;1.75;;
24008;SDS011;12217;50.792;4.372;2023-07-29T01:22:50;3.72;;;1.85;;
24008;SDS011;12217;50.792;4.372;2023-07-29T01:25:16;4.00;;;2.08;;
24008;SDS011;12217;50.792;4.372;2023-07-29T01:27:42;2.05;;;1.40;;
24008;SDS011;12217;50.792;4.372;2023-07-29T01:30:09;1.83;;;1.67;;
24008;SDS011;12217;50.792;4.372;2023-07-29T01:32:37;2.03;;;1.60;;
24008;SDS011;12217;50.792;4.372;2023-07-29T01:35:31;2.75;;;1.70;;
24008;SDS011;12217;50.792;4.372;2023-07-29T01:38:05;2.08;;;1.88;;
24008;SDS011;12217;50.792;4.372;2023-07-29T01:40:38;2.70;;;1.92;;
24008;SDS011;12217;50.792;4.372;2023-07-29T01:43:05;2.75;;;2.00;;
24008;SDS011;12217;50.792;4.372;2023-07-29T01:45:33;2.50;;;2.20;;
24008;SDS011;12217;50.792;4.372;2023-07-29T01:48:03;6.82;;;2.17;;
24008;SDS011;12217;50.792;4.372;2023-07-29T01:50:29;4.47;;;2.10;;
24008;SDS011;12217;50.792;4.372;2023-07-29T01:52:57;2.35;;;1.95;;
24008;SDS011;12217;50.792;4.372;2023-07-29T01:55:23;2.92;;;2.10;;
24008;SDS011;12217;50.792;4.372;2023-07-29T01:57:49;3.60;;;2.30;;
24008;SDS011;12217;50.792;4.372;2023-07-29T02:00:16;4.03;;;2.20;;
24008;SDS011;12217;50.792;4.372;2023-07-29T02:02:42;3.03;;;1.77;;
24008;SDS011;12217;50.792;4.372;2023-07-29T02:05:08;4.75;;;2.40;;
24008;SDS011;12217;50.792;4.372;2023-07-29T02:07:33;5.07;;;2.58;;
24008;SDS011;12217;50.792;4.372;2023-07-29T02:09:59;2.42;;;1.80;;
24008;SDS011;12217;50.792;4.372;2023-07-29T02:12:25;4.78;;;2.00;;
24008;SDS011;12217;50.792;4.372;2023-07-29T02:14:50;2.78;;;1.95;;
24008;SDS011;12217;50.792;4.372;2023-07-29T02:17:16;3.53;;;2.00;;
24008;SDS011;12217;50.792;4.372;2023-07-29T02:19:42;3.80;;;2.38;;
24008;SDS011;12217;50.792;4.372;2023-07-29T02:22:07;2.30;;;2.00;;
24008;SDS011;12217;50.792;4.372;2023-07-29T02:24:33;3.08;;;2.20;;
24008;SDS011;12217;50.792;4.372;2023-07-29T02:26:58;3.03;;;1.92;;
24008;SDS011;12217;50.792;4.372;2023-07-29T02:29:24;3.38;;;2.00;;
24008;SDS011;12217;50.792;4.372;2023-07-29T02:31:50;2.70;;;2.13;;
24008;SDS011;12217;50.792;4.372;2023-07-29T02:34:16;4.10;;;2.50;;
24008;SDS011;12217;50.792;4.372;2023-07-29T02:36:41;2.38;;;2.13;;
24008;SDS011;12217;50.792;4.372;2023-07-29T02:39:07;2.88;;;2.03;;
24008;SDS011;12217;50.792;4.372;2023-07-29T02:41:32;3.67;;;2.13;;
24008;SDS011;12217;50.792;4.372;2023-07-29T02:43:58;4.30;;;2.10;;
24008;SDS011;12217;50.792;4.372;2023-07-29T02:46:24;4.40;;;2.40;;
24008;SDS011;12217;50.792;4.372;2023-07-29T02:48:50;3.33;;;2.25;;
24008;SDS011;12217;50.792;4.372;2023-07-29T02:51:15;4.60;;;2.22;;
24008;SDS011;12217;50.792;4.372;2023-07-29T02:53:41;4.25;;;2.10;;
24008;SDS011;12217;50.792;4.372;2023-07-29T02:56:07;3.25;;;2.58;;
24008;SDS011;12217;50.792;4.372;2023-07-29T02:58:35;2.50;;;1.85;;
24008;SDS011;12217;50.792;4.372;2023-07-29T03:01:02;3.42;;;1.90;;
24008;SDS011;12217;50.792;4.372;2023-07-29T03:03:28;6.90;;;1.90;;
24008;SDS011;12217;50.792;4.372;2023-07-29T03:06:13;4.60;;;2.42;;
24008;SDS011;12217;50.792;4.372;2023-07-29T03:08:39;6.07;;;2.40;;
24008;SDS011;12217;50.792;4.372;2023-07-29T03:11:12;3.35;;;2.28;;
24008;SDS011;12217;50.792;4.372;2023-07-29T03:13:39;4.55;;;2.15;;
24008;SDS011;12217;50.792;4.372;2023-07-29T03:16:11;4.57;;;2.20;;
24008;SDS011;12217;50.792;4.372;2023-07-29T03:18:39;5.25;;;3.15;;
24008;SDS011;12217;50.792;4.372;2023-07-29T03:21:05;2.45;;;2.20;;
24008;SDS011;12217;50.792;4.372;2023-07-29T03:23:32;3.92;;;2.15;;
24008;SDS011;12217;50.792;4.372;2023-07-29T03:25:58;4.53;;;2.08;;
24008;SDS011;12217;50.792;4.372;2023-07-29T03:28:26;3.17;;;2.20;;
24008;SDS011;12217;50.792;4.372;2023-07-29T03:30:53;4.28;;;2.13;;
24008;SDS011;12217;50.792;4.372;2023-07-29T03:33:19;3.25;;;2.00;;
24008;SDS011;12217;50.792;4.372;2023-07-29T03:35:45;3.33;;;2.22;;
24008;SDS011;12217;50.792;4.372;2023-07-29T03:38:11;3.75;;;2.10;;
24008;SDS011;12217;50.792;4.372;2023-07-29T03:40:39;6.18;;;2.38;;
24008;SDS011;12217;50.792;4.372;2023-07-29T03:43:06;3.13;;;1.80;;
24008;SDS011;12217;50.792;4.372;2023-07-29T03:45:32;2.63;;;2.00;;
24008;SDS011;12217;50.792;4.372;2023-07-29T03:47:58;2.42;;;2.20;;
24008;SDS011;12217;50.792;4.372;2023-07-29T03:50:23;4.78;;;2.08;;
24008;SDS011;12217;50.792;4.372;2023-07-29T03:52:49;4.10;;;2.38;;
24008;SDS011;12217;50.792;4.372;2023-07-29T03:55:15;4.45;;;2.33;;
24008;SDS011;12217;50.792;4.372;2023-07-29T03:57:41;4.35;;;2.00;;
24008;SDS011;12217;50.792;4.372;2023-07-29T04:00:07;5.00;;;2.13;;
24008;SDS011;12217;50.792;4.372;2023-07-29T04:02:34;3.20;;;1.80;;
24008;SDS011;12217;50.792;4.372;2023-07-29T04:05:02;2.90;;;2.13;;
24008;SDS011;12217;50.792;4.372;2023-07-29T04:07:28;3.83;;;2.05;;
24008;SDS011;12217;50.792;4.372;2023-07-29T04:09:54;2.78;;;1.90;;
24008;SDS011;12217;50.792;4.372;2023-07-29T04:12:19;3.60;;;2.00;;
24008;SDS011;12217;50.792;4.372;2023-07-29T04:14:46;2.95;;;1.92;;
24008;SDS011;12217;50.792;4.372;2023-07-29T04:17:12;3.03;;;2.00;;
24008;SDS011;12217;50.792;4.372;2023-07-29T04:19:38;3.63;;;2.00;;
24008;SDS011;12217;50.792;4.372;2023-07-29T04:22:03;4.53;;;2.30;;
24008;SDS011;12217;50.792;4.372;2023-07-29T04:24:29;5.18;;;2.30;;
24008;SDS011;12217;50.792;4.372;2023-07-29T04:26:54;4.18;;;2.00;;
24008;SDS011;12217;50.792;4.372;2023-07-29T04:29:20;3.83;;;2.00;;
24008;SDS011;12217;50.792;4.372;2023-07-29T04:31:47;3.47;;;2.00;;
24008;SDS011;12217;50.792;4.372;2023-07-29T04:34:13;4.70;;;1.90;;
24008;SDS011;12217;50.792;4.372;2023-07-29T04:36:39;3.75;;;2.03;;
24008;SDS011;12217;50.792;4.372;2023-07-29T04:39:04;2.55;;;2.10;;
24008;SDS011;12217;50.792;4.372;2023-07-29T04:41:30;4.55;;;2.25;;
24008;SDS011;12217;50.792;4.372;2023-07-29T04:43:56;3.38;;;2.03;;
24008;SDS011;12217;50.792;4.372;2023-07-29T04:46:21;3.40;;;1.70;;
24008;SDS011;12217;50.792;4.372;2023-07-29T04:48:47;3.88;;;2.10;;
24008;SDS011;12217;50.792;4.372;2023-07-29T04:51:12;3.63;;;1.88;;
24008;SDS011;12217;50.792;4.372;2023-07-29T04:53:38;3.40;;;2.00;;
24008;SDS011;12217;50.792;4.372;2023-07-29T04:56:04;4.63;;;2.08;;
24008;SDS011;12217;50.792;4.372;2023-07-29T04:58:30;3.20;;;2.03;;
24008;SDS011;12217;50.792;4.372;2023-07-29T05:00:59;4.68;;;2.10;;
24008;SDS011;12217;50.792;4.372;2023-07-29T05:03:25;3.20;;;1.95;;
24008;SDS011;12217;50.792;4.372;2023-07-29T05:05:51;3.65;;;1.85;;
24008;SDS011;12217;50.792;4.372;2023-07-29T05:08:18;3.80;;;1.80;;
24008;SDS011;12217;50.792;4.372;2023-07-29T05:10:44;2.85;;;1.70;;
24008;SDS011;12217;50.792;4.372;2023-07-29T05:13:13;3.80;;;1.90;;
24008;SDS011;12217;50.792;4.372;2023-07-29T05:15:38;3.13;;;1.67;;
24008;SDS011;12217;50.792;4.372;2023-07-29T05:18:04;2.65;;;1.70;;
24008;SDS011;12217;50.792;4.372;2023-07-29T05:20:29;3.85;;;2.22;;
24008;SDS011;12217;50.792;4.372;2023-07-29T05:22:55;5.72;;;2.10;;
24008;SDS011;12217;50.792;4.372;2023-07-29T05:25:21;2.53;;;1.90;;
24008;SDS011;12217;50.792;4.372;2023-07-29T05:27:46;4.80;;;1.90;;
24008;SDS011;12217;50.792;4.372;2023-07-29T05:30:12;4.13;;;1.75;;
24008;SDS011;12217;50.792;4.372;2023-07-29T05:32:37;2.72;;;1.92;;
24008;SDS011;12217;50.792;4.372;2023-07-29T05:35:03;2.78;;;1.50;;
24008;SDS011;12217;50.792;4.372;2023-07-29T05:37:29;2.55;;;1.70;;
24008;SDS011;12217;50.792;4.372;2023-07-29T05:39:54;2.92;;;1.77;;
24008;SDS011;12217;50.792;4.372;2023-07-29T05:42:20;11.65;;;2.40;;
24008;SDS011;12217;50.792;4.372;2023-07-29T05:44:45;2.95;;;1.60;;
24008;SDS011;12217;50.792;4.372;2023-07-29T05:47:11;3.30;;;1.67;;
24008;SDS011;12217;50.792;4.372;2023-07-29T05:49:37;2.42;;;1.48;;
24008;SDS011;12217;50.792;4.372;2023-07-29T05:52:02;2.67;;;1.60;;
24008;SDS011;12217;50.792;4.372;2023-07-29T05:54:28;4.32;;;1.60;;
24008;SDS011;12217;50.792;4.372;2023-07-29T05:56:53;3.28;;;1.50;;
24008;SDS011;12217;50.792;4.372;2023-07-29T05:59:19;1.73;;;1.30;;
24008;SDS011;12217;50.792;4.372;2023-07-29T06:01:44;2.55;;;1.45;;
24008;SDS011;12217;50.792;4.372;2023-07-29T06:04:10;2.22;;;1.60;;
24008;SDS011;12217;50.792;4.372;2023-07-29T06:06:35;2.30;;;1.40;;
24008;SDS011;12217;50.792;4.372;2023-07-29T06:09:01;1.73;;;1.58;;
24008;SDS011;12217;50.792;4.372;2023-07-29T06:11:27;2.40;;;1.60;;
24008;SDS011;12217;50.792;4.372;2023-07-29T06:13:52;1.95;;;1.40;;
24008;SDS011;12217;50.792;4.372;2023-07-29T06:16:18;3.38;;;1.33;;
24008;SDS011;12217;50.792;4.372;2023-07-29T06:18:43;2.10;;;1.40;;
24008;SDS011;12217;50.792;4.372;2023-07-29T06:21:09;4.28;;;1.58;;
24008;SDS011;12217;50.792;4.372;2023-07-29T06:23:37;2.55;;;1.30;;
24008;SDS011;12217;50.792;4.372;2023-07-29T06:26:03;3.10;;;1.50;;
24008;SDS011;12217;50.792;4.372;2023-07-29T06:28:28;1.77;;;1.35;;
24008;SDS011;12217;50.792;4.372;2023-07-29T06:30:54;1.95;;;1.55;;
24008;SDS011;12217;50.792;4.372;2023-07-29T06:33:19;1.77;;;1.38;;
24008;SDS011;12217;50.792;4.372;2023-07-29T06:35:45;2.85;;;1.60;;
24008;SDS011;12217;50.792;4.372;2023-07-29T06:38:10;1.92;;;1.48;;
24008;SDS011;12217;50.792;4.372;2023-07-29T06:40:36;2.53;;;1.60;;
24008;SDS011;12217;50.792;4.372;2023-07-29T06:43:01;3.55;;;1.58;;
24008;SDS011;12217;50.792;4.372;2023-07-29T06:45:27;2.95;;;1.42;;
24008;SDS011;12217;50.792;4.372;2023-07-29T06:47:52;1.58;;;1.48;;
24008;SDS011;12217;50.792;4.372;2023-07-29T06:50:18;2.40;;;1.60;;
24008;SDS011;12217;50.792;4.372;2023-07-29T06:52:44;3.25;;;1.60;;
24008;SDS011;12217;50.792;4.372;2023-07-29T06:55:10;1.92;;;1.50;;
24008;SDS011;12217;50.792;4.372;2023-07-29T06:57:36;2.85;;;1.52;;
24008;SDS011;12217;50.792;4.372;2023-07-29T07:00:02;3.38;;;1.50;;
24008;SDS011;12217;50.792;4.372;2023-07-29T07:02:28;2.42;;;1.55;;
24008;SDS011;12217;50.792;4.372;2023-07-29T07:04:54;2.08;;;1.45;;
24008;SDS011;12217;50.792;4.372;2023-07-29T07:07:19;2.40;;;1.65;;
24008;SDS011;12217;50.792;4.372;2023-07-29T07:09:45;2.03;;;1.25;;
24008;SDS011;12217;50.792;4.372;2023-07-29T07:12:11;1.58;;;1.40;;
24008;SDS011;12217;50.792;4.372;2023-07-29T07:14:36;4.35;;;1.50;;
24008;SDS011;12217;50.792;4.372;2023-07-29T07:17:02;3.95;;;1.73;;
24008;SDS011;12217;50.792;4.372;2023-07-29T07:19:28;1.77;;;1.40;;
24008;SDS011;12217;50.792;4.372;2023-07-29T07:21:54;2.03;;;1.60;;
24008;SDS011;12217;50.792;4.372;2023-07-29T07:24:19;3.85;;;1.40;;
24008;SDS011;12217;50.792;4.372;2023-07-29T07:26:45;1.73;;;1.30;;
24008;SDS011;12217;50.792;4.372;2023-07-29T07:29:10;4.40;;;1.50;;
24008;SDS011;12217;50.792;4.372;2023-07-29T07:31:36;3.17;;;1.50;;
24008;SDS011;12217;50.792;4.372;2023-07-29T07:34:01;2.22;;;1.42;;
24008;SDS011;12217;50.792;4.372;2023-07-29T07:36:29;4.20;;;1.50;;
24008;SDS011;12217;50.792;4.372;2023-07-29T07:38:55;3.17;;;1.90;;
24008;SDS011;12217;50.792;4.372;2023-07-29T07:41:21;3.20;;;1.33;;
24008;SDS011;12217;50.792;4.372;2023-07-29T07:43:47;4.70;;;1.55;;
24008;SDS011;12217;50.792;4.372;2023-07-29T07:46:13;2.40;;;1.60;;
24008;SDS011;12217;50.792;4.372;2023-07-29T07:48:38;2.58;;;1.35;;
24008;SDS011;12217;50.792;4.372;2023-07-29T07:51:11;2.75;;;1.60;;
24008;SDS011;12217;50.792;4.372;2023-07-29T07:53:37;1.63;;;1.40;;
24008;SDS011;12217;50.792;4.372;2023-07-29T07:56:02;4.47;;;1.80;;
24008;SDS011;12217;50.792;4.372;2023-07-29T07:58:28;2.00;;;1.40;;
24008;SDS011;12217;50.792;4.372;2023-07-29T08:01:00;3.63;;;1.52;;
24008;SDS011;12217;50.792;4.372;2023-07-29T08:03:26;1.70;;;1.50;;
24008;SDS011;12217;50.792;4.372;2023-07-29T08:05:52;2.45;;;1.48;;
24008;SDS011;12217;50.792;4.372;2023-07-29T08:08:17;2.22;;;1.48;;
24008;SDS011;12217;50.792;4.372;2023-07-29T08:10:43;2.95;;;1.50;;
24008;SDS011;12217;50.792;4.372;2023-07-29T08:13:09;2.38;;;1.60;;
24008;SDS011;12217;50.792;4.372;2023-07-29T08:15:34;2.00;;;1.40;;
24008;SDS011;12217;50.792;4.372;2023-07-29T08:18:00;3.15;;;1.48;;
24008;SDS011;12217;50.792;4.372;2023-07-29T08:20:25;4.15;;;1.58;;
24008;SDS011;12217;50.792;4.372;2023-07-29T08:22:51;2.80;;;1.42;;
24008;SDS011;12217;50.792;4.372;2023-07-29T08:25:16;2.45;;;1.45;;
24008;SDS011;12217;50.792;4.372;2023-07-29T08:27:42;3.58;;;1.30;;
24008;SDS011;12217;50.792;4.372;2023-07-29T08:30:08;1.65;;;1.35;;
24008;SDS011;12217;50.792;4.372;2023-07-29T08:32:34;1.92;;;1.38;;
24008;SDS011;12217;50.792;4.372;2023-07-29T08:34:59;1.77;;;1.30;;
24008;SDS011;12217;50.792;4.372;2023-07-29T08:37:25;1.73;;;1.50;;
24008;SDS011;12217;50.792;4.372;2023-07-29T08:39:52;3.00;;;1.45;;
24008;SDS011;12217;50.792;4.372;2023-07-29T08:42:19;1.50;;;1.30;;
24008;SDS011;12217;50.792;4.372;2023-07-29T08:44:45;1.88;;;1.35;;
24008;SDS011;12217;50.792;4.372;2023-07-29T08:47:14;1.60;;;1.10;;
24008;SDS011;12217;50.792;4.372;2023-07-29T08:49:41;2.45;;;1.30;;
24008;SDS011;12217;50.792;4.372;2023-07-29T08:52:07;1.92;;;1.38;;
24008;SDS011;12217;50.792;4.372;2023-07-29T08:54:34;2.08;;;1.50;;
24008;SDS011;12217;50.792;4.372;2023-07-29T08:57:00;2.03;;;1.35;;
24008;SDS011;12217;50.792;4.372;2023-07-29T08:59:26;2.38;;;1.48;;
24008;SDS011;12217;50.792;4.372;2023-07-29T09:01:53;1.52;;;1.42;;
24008;SDS011;12217;50.792;4.372;2023-07-29T09:04:21;2.10;;;1.60;;
24008;SDS011;12217;50.792;4.372;2023-07-29T09:06:48;2.05;;;1.27;;
24008;SDS011;12217;50.792;4.372;2023-07-29T09:09:16;2.85;;;1.63;;
24008;SDS011;12217;50.792;4.372;2023-07-29T09:11:41;1.30;;;1.20;;
24008;SDS011;12217;50.792;4.372;2023-07-29T09:14:08;1.92;;;1.45;;
24008;SDS011;12217;50.792;4.372;2023-07-29T09:16:34;1.52;;;1.42;;
24008;SDS011;12217;50.792;4.372;2023-07-29T09:19:01;2.22;;;1.25;;
24008;SDS011;12217;50.792;4.372;2023-07-29T09:21:28;3.85;;;1.73;;
24008;SDS011;12217;50.792;4.372;2023-07-29T09:23:54;2.78;;;1.60;;
24008;SDS011;12217;50.792;4.372;2023-07-29T09:26:27;3.28;;;1.73;;
24008;SDS011;12217;50.792;4.372;2023-07-29T09:28:56;1.33;;;1.23;;
24008;SDS011;12217;50.792;4.372;2023-07-29T09:31:23;2.67;;;1.50;;
24008;SDS011;12217;50.792;4.372;2023-07-29T09:34:03;1.70;;;1.60;;
24008;SDS011;12217;50.792;4.372;2023-07-29T09:36:31;2.58;;;1.70;;
24008;SDS011;12217;50.792;4.372;2023-07-29T09:38:57;1.70;;;1.52;;
24008;SDS011;12217;50.792;4.372;2023-07-29T09:41:24;2.38;;;1.83;;
24008;SDS011;12217;50.792;4.372;2023-07-29T09:43:59;2.10;;;1.70;;
24008;SDS011;12217;50.792;4.372;2023-07-29T09:46:31;4.65;;;2.40;;
24008;SDS011;12217;50.792;4.372;2023-07-29T09:49:04;4.72;;;2.72;;
24008;SDS011;12217;50.792;4.372;2023-07-29T09:51:31;2.97;;;2.50;;
24008;SDS011;12217;50.792;4.372;2023-07-29T09:54:02;2.47;;;1.98;;
24008;SDS011;12217;50.792;4.372;2023-07-29T09:56:28;2.53;;;1.67;;
24008;SDS011;12217;50.792;4.372;2023-07-29T09:58:56;4.30;;;1.70;;
24008;SDS011;12217;50.792;4.372;2023-07-29T10:01:23;2.28;;;1.60;;
24008;SDS011;12217;50.792;4.372;2023-07-29T10:03:49;4.15;;;1.80;;
24008;SDS011;12217;50.792;4.372;2023-07-29T10:06:14;1.80;;;1.70;;
24008;SDS011;12217;50.792;4.372;2023-07-29T10:08:40;3.53;;;1.60;;
24008;SDS011;12217;50.792;4.372;2023-07-29T10:11:08;1.83;;;1.73;;
24008;SDS011;12217;50.792;4.372;2023-07-29T10:13:35;4.40;;;1.90;;
24008;SDS011;12217;50.792;4.372;2023-07-29T10:16:01;4.93;;;2.00;;
24008;SDS011;12217;50.792;4.372;2023-07-29T10:18:28;4.07;;;2.83;;
24008;SDS011;12217;50.792;4.372;2023-07-29T10:20:58;5.43;;;2.97;;
24008;SDS011;12217;50.792;4.372;2023-07-29T10:23:25;3.67;;;3.20;;
24008;SDS011;12217;50.792;4.372;2023-07-29T10:26:02;2.92;;;2.55;;
24008;SDS011;12217;50.792;4.372;2023-07-29T10:28:30;3.92;;;2.42;;
24008;SDS011;12217;50.792;4.372;2023-07-29T10:30:57;6.53;;;2.50;;
24008;SDS011;12217;50.792;4.372;2023-07-29T10:33:23;2.40;;;2.20;;
24008;SDS011;12217;50.792;4.372;2023-07-29T10:35:49;3.22;;;2.42;;
24008;SDS011;12217;50.792;4.372;2023-07-29T10:38:15;3.38;;;2.22;;
24008;SDS011;12217;50.792;4.372;2023-07-29T10:40:49;2.33;;;1.90;;
24008;SDS011;12217;50.792;4.372;2023-07-29T10:43:19;4.18;;;2.38;;
24008;SDS011;12217;50.792;4.372;2023-07-29T10:45:52;2.47;;;1.92;;
24008;SDS011;12217;50.792;4.372;2023-07-29T10:48:39;2.78;;;2.08;;
24008;SDS011;12217;50.792;4.372;2023-07-29T10:51:38;3.58;;;2.75;;
24008;SDS011;12217;50.792;4.372;2023-07-29T10:56:28;3.80;;;2.17;;
24008;SDS011;12217;50.792;4.372;2023-07-29T10:58:56;3.58;;;2.63;;
24008;SDS011;12217;50.792;4.372;2023-07-29T11:01:26;3.25;;;2.70;;
24008;SDS011;12217;50.792;4.372;2023-07-29T11:09:42;3.70;;;3.38;;
24008;SDS011;12217;50.792;4.372;2023-07-29T11:15:04;4.95;;;3.40;;
24008;SDS011;12217;50.792;4.372;2023-07-29T11:20:08;4.20;;;2.95;;
24008;SDS011;12217;50.792;4.372;2023-07-29T11:22:34;3.05;;;2.85;;
24008;SDS011;12217;50.792;4.372;2023-07-29T11:25:01;3.22;;;2.80;;
24008;SDS011;12217;50.792;4.372;2023-07-29T11:27:26;3.40;;;3.10;;
24008;SDS011;12217;50.792;4.372;2023-07-29T11:29:58;5.45;;;3.50;;
24008;SDS011;12217;50.792;4.372;2023-07-29T11:32:25;2.75;;;2.55;;
24008;SDS011;12217;50.792;4.372;2023-07-29T11:34:51;3.70;;;2.85;;
24008;SDS011;12217;50.792;4.372;2023-07-29T11:37:17;4.82;;;2.42;;
24008;SDS011;12217;50.792;4.372;2023-07-29T11:39:43;3.22;;;2.83;;
24008;SDS011;12217;50.792;4.372;2023-07-29T11:42:10;2.90;;;2.70;;
24008;SDS011;12217;50.792;4.372;2023-07-29T11:44:37;3.33;;;3.03;;
24008;SDS011;12217;50.792;4.372;2023-07-29T11:47:12;3.05;;;2.85;;
24008;SDS011;12217;50.792;4.372;2023-07-29T11:49:39;2.80;;;2.60;;
24008;SDS011;12217;50.792;4.372;2023-07-29T11:52:06;2.83;;;2.63;;
24008;SDS011;12217;50.792;4.372;2023-07-29T11:54:38;2.85;;;2.60;;
24008;SDS011;12217;50.792;4.372;2023-07-29T11:57:07;2.78;;;2.58;;
24008;SDS011;12217;50.792;4.372;2023-07-29T11:59:34;2.70;;;2.50;;
24008;SDS011;12217;50.792;4.372;2023-07-29T12:02:01;2.97;;;2.10;;
24008;SDS011;12217;50.792;4.372;2023-07-29T12:04:30;2.33;;;2.20;;
24008;SDS011;12217;50.792;4.372;2023-07-29T12:06:56;2.17;;;2.05;;
24008;SDS011;12217;50.792;4.372;2023-07-29T12:09:22;2.60;;;2.38;;
24008;SDS011;12217;50.792;4.372;2023-07-29T12:11:48;3.40;;;2.20;;
24008;SDS011;12217;50.792;4.372;2023-07-29T12:14:15;4.53;;;2.88;;
24008;SDS011;12217;50.792;4.372;2023-07-29T12:16:44;3.55;;;2.85;;
24008;SDS011;12217;50.792;4.372;2023-07-29T12:19:12;2.88;;;2.67;;
24008;SDS011;12217;50.792;4.372;2023-07-29T12:21:39;3.53;;;2.85;;
24008;SDS011;12217;50.792;4.372;2023-07-29T12:24:08;3.40;;;3.10;;
24008;SDS011;12217;50.792;4.372;2023-07-29T12:26:37;4.18;;;3.30;;
24008;SDS011;12217;50.792;4.372;2023-07-29T12:29:13;7.57;;;4.03;;
24008;SDS011;12217;50.792;4.372;2023-07-29T12:31:44;6.23;;;4.23;;
24008;SDS011;12217;50.792;4.372;2023-07-29T12:34:16;5.97;;;4.00;;
24008;SDS011;12217;50.792;4.372;2023-07-29T12:36:44;7.38;;;4.60;;
24008;SDS011;12217;50.792;4.372;2023-07-29T12:39:21;4.82;;;4.38;;
24008;SDS011;12217;50.792;4.372;2023-07-29T12:41:47;5.82;;;4.93;;
24008;SDS011;12217;50.792;4.372;2023-07-29T12:44:15;5.10;;;4.60;;
24008;SDS011;12217;50.792;4.372;2023-07-29T12:46:40;4.47;;;4.10;;
24008;SDS011;12217;50.792;4.372;2023-07-29T12:49:06;4.85;;;4.45;;
24008;SDS011;12217;50.792;4.372;2023-07-29T12:51:32;5.13;;;4.35;;
24008;SDS011;12217;50.792;4.372;2023-07-29T12:53:58;4.10;;;3.80;;
24008;SDS011;12217;50.792;4.372;2023-07-29T12:56:24;7.05;;;4.03;;
24008;SDS011;12217;50.792;4.372;2023-07-29T12:58:49;4.32;;;3.63;;
24008;SDS011;12217;50.792;4.372;2023-07-29T13:01:15;3.33;;;3.03;;
24008;SDS011;12217;50.792;4.372;2023-07-29T13:03:44;3.60;;;3.00;;
24008;SDS011;12217;50.792;4.372;2023-07-29T13:06:10;2.95;;;2.75;;
24008;SDS011;12217;50.792;4.372;2023-07-29T13:08:36;3.30;;;3.00;;
24008;SDS011;12217;50.792;4.372;2023-07-29T13:11:02;3.78;;;3.20;;
24008;SDS011;12217;50.792;4.372;2023-07-29T13:13:28;4.28;;;3.10;;
24008;SDS011;12217;50.792;4.372;2023-07-29T13:15:54;4.88;;;3.13;;
24008;SDS011;12217;50.792;4.372;2023-07-29T13:18:20;3.72;;;3.08;;
24008;SDS011;12217;50.792;4.372;2023-07-29T13:20:46;3.75;;;2.88;;
24008;SDS011;12217;50.792;4.372;2023-07-29T13:23:12;3.78;;;3.17;;
24008;SDS011;12217;50.792;4.372;2023-07-29T13:25:37;2.92;;;2.72;;
24008;SDS011;12217;50.792;4.372;2023-07-29T13:28:03;3.30;;;3.05;;
24008;SDS011;12217;50.792;4.372;2023-07-29T13:30:29;3.15;;;2.85;;
24008;SDS011;12217;50.792;4.372;2023-07-29T13:32:56;3.63;;;3.33;;
24008;SDS011;12217;50.792;4.372;2023-07-29T13:35:21;3.78;;;2.90;;
24008;SDS011;12217;50.792;4.372;2023-07-29T13:37:47;2.75;;;2.38;;
24008;SDS011;12217;50.792;4.372;2023-07-29T13:40:12;2.15;;;1.95;;
24008;SDS011;12217;50.792;4.372;2023-07-29T13:42:38;1.88;;;1.77;;
24008;SDS011;12217;50.792;4.372;2023-07-29T13:45:04;2.75;;;1.50;;
24008;SDS011;12217;50.792;4.372;2023-07-29T13:47:30;1.35;;;1.25;;
24008;SDS011;12217;50.792;4.372;2023-07-29T13:49:55;1.50;;;1.40;;
24008;SDS011;12217;50.792;4.372;2023-07-29T13:52:21;1.60;;;1.50;;
24008;SDS011;12217;50.792;4.372;2023-07-29T13:54:46;1.88;;;1.75;;
24008;SDS011;12217;50.792;4.372;2023-07-29T13:57:12;1.65;;;1.55;;
24008;SDS011;12217;50.792;4.372;2023-07-29T13:59:37;1.70;;;1.60;;
24008;SDS011;12217;50.792;4.372;2023-07-29T14:02:04;1.40;;;1.30;;
24008;SDS011;12217;50.792;4.372;2023-07-29T14:04:30;1.58;;;1.48;;
24008;SDS011;12217;50.792;4.372;2023-07-29T14:06:57;1.50;;;1.40;;
24008;SDS011;12217;50.792;4.372;2023-07-29T14:09:22;2.30;;;1.60;;
24008;SDS011;12217;50.792;4.372;2023-07-29T14:11:48;1.52;;;1.40;;
24008;SDS011;12217;50.792;4.372;2023-07-29T14:14:13;2.10;;;1.40;;
24008;SDS011;12217;50.792;4.372;2023-07-29T14:16:39;2.03;;;1.40;;
24008;SDS011;12217;50.792;4.372;2023-07-29T14:19:05;1.70;;;1.60;;
24008;SDS011;12217;50.792;4.372;2023-07-29T14:21:30;1.52;;;1.40;;
24008;SDS011;12217;50.792;4.372;2023-07-29T14:23:56;2.35;;;1.70;;
24008;SDS011;12217;50.792;4.372;2023-07-29T14:26:21;2.03;;;1.40;;
24008;SDS011;12217;50.792;4.372;2023-07-29T14:28:47;1.73;;;1.40;;
24008;SDS011;12217;50.792;4.372;2023-07-29T14:31:14;1.92;;;1.40;;
24008;SDS011;12217;50.792;4.372;2023-07-29T14:33:42;1.50;;;1.40;;
24008;SDS011;12217;50.792;4.372;2023-07-29T14:36:08;1.88;;;1.48;;
24008;SDS011;12217;50.792;4.372;2023-07-29T14:38:34;1.65;;;1.35;;
24008;SDS011;12217;50.792;4.372;2023-07-29T14:41:00;1.98;;;1.10;;
24008;SDS011;12217;50.792;4.372;2023-07-29T14:43:26;1.20;;;1.10;;
24008;SDS011;12217;50.792;4.372;2023-07-29T14:45:51;1.95;;;1.42;;
24008;SDS011;12217;50.792;4.372;2023-07-29T14:48:17;2.00;;;1.40;;
24008;SDS011;12217;50.792;4.372;2023-07-29T14:50:42;2.90;;;1.63;;
24008;SDS011;12217;50.792;4.372;2023-07-29T14:53:09;1.40;;;1.30;;
24008;SDS011;12217;50.792;4.372;2023-07-29T14:55:36;1.40;;;1.30;;
24008;SDS011;12217;50.792;4.372;2023-07-29T14:58:02;1.88;;;1.50;;
24008;SDS011;12217;50.792;4.372;2023-07-29T15:00:27;1.60;;;1.50;;
24008;SDS011;12217;50.792;4.372;2023-07-29T15:02:53;2.63;;;1.77;;